createdAt,value
2017-05-30T00:00:44.205Z,101292.33
2017-05-30T00:03:10.374Z,101292.77
2017-05-30T00:05:36.537Z,101296.39
2017-05-30T00:08:02.752Z,101294.23
2017-05-30T00:10:28.986Z,101301.36
2017-05-30T00:12:55.168Z,101297.42
2017-05-30T00:15:21.350Z,101303.63
2017-05-30T00:17:47.510Z,101303.27
2017-05-30T00:20:13.689Z,101304.23
2017-05-30T00:22:39.923Z,101301.05
2017-05-30T00:25:06.126Z,101291.16
2017-05-30T00:27:32.302Z,101291.66
2017-05-30T00:29:58.457Z,101280.41
2017-05-30T00:32:24.614Z,101286.37
2017-05-30T00:34:50.782Z,101289.93
2017-05-30T00:37:16.938Z,101305.66
2017-05-30T00:39:43.130Z,101303.02
2017-05-30T00:42:09.316Z,101309.77
2017-05-30T00:44:35.494Z,101302.64
2017-05-30T00:47:01.686Z,101306.69
2017-05-30T00:49:27.941Z,101299.94
2017-05-30T00:51:54.125Z,101301.78
2017-05-30T00:54:20.319Z,101304.54
2017-05-30T00:56:46.699Z,101303.25
2017-05-30T00:59:13.475Z,101308.10
2017-05-30T01:01:39.625Z,101304.23
2017-05-30T01:04:05.982Z,101308.22
2017-05-30T01:06:32.143Z,101317.25
2017-05-30T01:08:58.323Z,101319.09
2017-05-30T01:11:24.581Z,101304.66
2017-05-30T01:13:50.778Z,101305.64
2017-05-30T01:16:16.961Z,101307.84
2017-05-30T01:18:43.187Z,101303.42
2017-05-30T01:21:09.897Z,101315.16
2017-05-30T01:23:36.285Z,101315.27
2017-05-30T01:26:02.436Z,101305.76
2017-05-30T01:28:28.661Z,101301.77
2017-05-30T01:30:54.860Z,101300.05
2017-05-30T01:33:21.021Z,101302.80
2017-05-30T01:35:47.184Z,101300.96
2017-05-30T01:38:13.397Z,101293.41
2017-05-30T01:40:39.767Z,101293.84
2017-05-30T01:43:05.948Z,101296.14
2017-05-30T01:45:32.169Z,101299.33
2017-05-30T01:47:58.375Z,101311.91
2017-05-30T01:50:24.560Z,101308.84
2017-05-30T01:52:50.822Z,101318.30
2017-05-30T01:55:16.969Z,101320.56
2017-05-30T01:57:43.171Z,101319.27
2017-05-30T02:00:09.369Z,101317.06
2017-05-30T02:02:35.613Z,101317.55
2017-05-30T02:05:01.777Z,101317.55
2017-05-30T02:07:27.925Z,101310.86
2017-05-30T02:09:54.074Z,101318.53
2017-05-30T02:12:21.242Z,101315.83
2017-05-30T02:14:47.486Z,101313.12
2017-05-30T02:17:13.707Z,101310.92
2017-05-30T02:19:39.914Z,101310.48
2017-05-30T02:22:06.074Z,101309.57
2017-05-30T02:24:32.257Z,101312.76
2017-05-30T02:26:58.490Z,101305.60
2017-05-30T02:29:24.646Z,101315.03
2017-05-30T02:31:50.810Z,101313.68
2017-05-30T02:34:17.036Z,101313.62
2017-05-30T02:36:43.238Z,101312.84
2017-05-30T02:39:09.429Z,101315.11
2017-05-30T02:41:35.575Z,101315.98
2017-05-30T02:44:01.725Z,101320.09
2017-05-30T02:46:28.077Z,101321.01
2017-05-30T02:48:54.263Z,101322.36
2017-05-30T02:51:20.465Z,101317.81
2017-05-30T02:53:46.653Z,101319.16
2017-05-30T02:56:12.837Z,101315.05
2017-05-30T02:58:39.048Z,101316.03
2017-05-30T03:01:05.250Z,101310.63
2017-05-30T03:03:31.444Z,101307.98
2017-05-30T03:05:57.627Z,101303.88
2017-05-30T03:08:23.853Z,101294.61
2017-05-30T03:10:50.019Z,101296.76
2017-05-30T03:13:16.279Z,101303.08
2017-05-30T03:15:42.470Z,101302.22
2017-05-30T03:18:08.699Z,101308.54
2017-05-30T03:20:35.446Z,101313.94
2017-05-30T03:23:01.649Z,101309.03
2017-05-30T03:25:27.926Z,101314.92
2017-05-30T03:27:54.079Z,101321.67
2017-05-30T03:30:20.260Z,101326.21
2017-05-30T03:32:46.535Z,101324.92
2017-05-30T03:35:12.698Z,101329.41
2017-05-30T03:37:38.970Z,101338.97
2017-05-30T03:40:05.157Z,101334.55
2017-05-30T03:42:31.355Z,101338.05
2017-05-30T03:44:57.549Z,101334.49
2017-05-30T03:47:23.692Z,101343.02
2017-05-30T03:49:49.915Z,101344.87
2017-05-30T03:52:16.082Z,101348.91
2017-05-30T03:54:43.013Z,101342.22
2017-05-30T03:57:09.225Z,101337.25
2017-05-30T03:59:35.426Z,101344.98
2017-05-30T04:02:01.622Z,101353.58
2017-05-30T04:04:27.857Z,101363.94
2017-05-30T04:06:54.088Z,101354.06
2017-05-30T04:09:20.301Z,101354.12
2017-05-30T04:11:46.635Z,101353.62
2017-05-30T04:14:12.800Z,101359.47
2017-05-30T04:16:38.998Z,101349.95
2017-05-30T04:19:05.145Z,101349.58
2017-05-30T04:21:31.399Z,101355.84
2017-05-30T04:23:57.597Z,101351.84
2017-05-30T04:26:23.766Z,101362.66
2017-05-30T04:28:49.951Z,101359.03
2017-05-30T04:31:16.119Z,101359.95
2017-05-30T04:33:42.443Z,101358.17
2017-05-30T04:36:09.697Z,101360.44
2017-05-30T04:38:35.853Z,101365.41
2017-05-30T04:41:02.063Z,101368.97
2017-05-30T04:43:28.240Z,101365.36
2017-05-30T04:45:54.509Z,101361.79
2017-05-30T04:48:20.742Z,101365.78
2017-05-30T04:50:46.905Z,101363.09
2017-05-30T04:53:13.104Z,101358.11
2017-05-30T04:55:39.254Z,101365.23
2017-05-30T04:58:05.559Z,101370.09
2017-05-30T05:00:32.686Z,101370.52
2017-05-30T05:02:58.834Z,101376.78
2017-05-30T05:05:24.996Z,101373.71
2017-05-30T05:07:51.229Z,101371.81
2017-05-30T05:10:17.484Z,101377.33
2017-05-30T05:12:43.888Z,101383.38
2017-05-30T05:15:10.903Z,101380.17
2017-05-30T05:17:37.126Z,101384.68
2017-05-30T05:20:03.446Z,101378.09
2017-05-30T05:22:29.665Z,101381.81
2017-05-30T05:24:55.955Z,101377.46
2017-05-30T05:27:22.181Z,101376.44
2017-05-30T05:29:48.479Z,101373.11
2017-05-30T05:32:15.116Z,101367.62
2017-05-30T05:34:41.305Z,101375.62
2017-05-30T05:37:07.529Z,101376.05
2017-05-30T05:39:33.845Z,101384.05
2017-05-30T05:42:00.102Z,101380.37
2017-05-30T05:44:26.254Z,101385.44
2017-05-30T05:46:52.444Z,101388.67
2017-05-30T05:49:18.676Z,101396.48
2017-05-30T05:51:45.060Z,101395.79
2017-05-30T05:54:11.221Z,101404.56
2017-05-30T05:56:37.478Z,101395.84
2017-05-30T05:59:03.754Z,101399.72
2017-05-30T06:01:30.015Z,101400.95
2017-05-30T06:03:56.251Z,101398.73
2017-05-30T06:06:22.556Z,101396.47
2017-05-30T06:08:48.760Z,101406.91
2017-05-30T06:11:14.931Z,101403.62
2017-05-30T06:13:41.195Z,101404.48
2017-05-30T06:16:07.388Z,101415.30
2017-05-30T06:18:33.693Z,101412.56
2017-05-30T06:20:59.856Z,101410.68
2017-05-30T06:23:26.089Z,101409.16
2017-05-30T06:25:52.372Z,101411.65
2017-05-30T06:28:18.577Z,101410.28
2017-05-30T06:30:44.754Z,101412.39
2017-05-30T06:33:10.914Z,101416.41
2017-05-30T06:35:37.443Z,101417.22
2017-05-30T06:38:04.573Z,101423.52
2017-05-30T06:40:30.795Z,101421.38
2017-05-30T06:42:57.026Z,101423.73
2017-05-30T06:45:23.225Z,101428.64
2017-05-30T06:47:49.388Z,101435.62
2017-05-30T06:50:15.730Z,101433.72
2017-05-30T06:52:41.909Z,101435.95
2017-05-30T06:55:08.066Z,101435.89
2017-05-30T06:57:34.314Z,101439.38
2017-05-30T07:00:00.518Z,101445.73
2017-05-30T07:02:26.790Z,101447.91
2017-05-30T07:04:53.065Z,101443.48
2017-05-30T07:07:19.306Z,101449.80
2017-05-30T07:09:45.483Z,101442.34
2017-05-30T07:12:11.680Z,101455.13
2017-05-30T07:14:38.062Z,101458.47
2017-05-30T07:17:04.266Z,101459.58
2017-05-30T07:19:30.580Z,101460.77
2017-05-30T07:21:56.780Z,101460.55
2017-05-30T07:24:22.937Z,101454.89
2017-05-30T07:26:49.217Z,101455.16
2017-05-30T07:29:15.571Z,101455.81
2017-05-30T07:31:41.778Z,101461.08
2017-05-30T07:34:07.989Z,101460.48
2017-05-30T07:36:34.185Z,101463.98
2017-05-30T07:39:00.336Z,101459.78
2017-05-30T07:41:26.605Z,101463.72
2017-05-30T07:43:52.893Z,101453.74
2017-05-30T07:46:19.065Z,101463.02
2017-05-30T07:48:45.270Z,101463.45
2017-05-30T07:51:11.546Z,101467.06
2017-05-30T07:53:37.735Z,101468.25
2017-05-30T07:56:03.963Z,101462.96
2017-05-30T07:58:30.125Z,101465.06
2017-05-30T08:00:56.337Z,101474.08
2017-05-30T08:03:22.634Z,101475.85
2017-05-30T08:05:48.874Z,101479.41
2017-05-30T08:08:15.066Z,101480.81
2017-05-30T08:10:41.275Z,101484.27
2017-05-30T08:13:08.009Z,101483.41
2017-05-30T08:15:34.278Z,101486.97
2017-05-30T08:18:00.448Z,101484.33
2017-05-30T08:20:26.646Z,101495.49
2017-05-30T08:22:53.553Z,101489.08
2017-05-30T08:25:19.762Z,101492.95
2017-05-30T08:27:46.003Z,101491.86
2017-05-30T08:30:12.175Z,101488.02
2017-05-30T08:42:18.416Z,101498.77
2017-05-30T08:44:44.590Z,101496.81
2017-05-30T08:47:10.883Z,101498.92
2017-05-30T08:49:37.050Z,101500.64
2017-05-30T08:52:03.260Z,101496.05
2017-05-30T08:54:29.548Z,101501.34
2017-05-30T08:56:55.777Z,101507.61
2017-05-30T08:59:21.986Z,101512.52
2017-05-30T09:01:48.162Z,101513.00
2017-05-30T09:04:14.368Z,101517.86
2017-05-30T09:06:40.569Z,101512.84
2017-05-30T09:09:06.812Z,101517.20
2017-05-30T09:11:33.023Z,101513.86
2017-05-30T09:13:59.194Z,101515.32
2017-05-30T09:16:25.406Z,101513.97
2017-05-30T09:18:51.566Z,101522.98
2017-05-30T09:21:17.770Z,101517.05
2017-05-30T09:23:43.982Z,101521.53
2017-05-30T09:26:11.230Z,101513.75
2017-05-30T09:28:37.427Z,101516.89
2017-05-30T09:31:03.685Z,101520.88
2017-05-30T09:33:30.066Z,101520.55
2017-05-30T09:35:56.217Z,101525.63
2017-05-30T09:38:22.857Z,101525.14
2017-05-30T09:40:49.100Z,101524.17
2017-05-30T09:43:15.334Z,101533.40
2017-05-30T09:45:41.499Z,101538.91
2017-05-30T09:48:07.709Z,101537.55
2017-05-30T09:50:33.918Z,101538.42
2017-05-30T09:53:00.106Z,101530.33
2017-05-30T09:55:26.494Z,101533.83
2017-05-30T09:57:52.631Z,101536.09
2017-05-30T10:00:18.829Z,101541.83
2017-05-30T10:02:45.041Z,101548.95
2017-05-30T10:05:11.251Z,101542.69
2017-05-30T10:07:37.526Z,101544.85
2017-05-30T10:10:03.740Z,101542.96
2017-05-30T10:12:30.094Z,101547.01
2017-05-30T10:14:56.370Z,101539.13
2017-05-30T10:17:22.572Z,101551.87
2017-05-30T10:19:49.041Z,101545.44
2017-05-30T10:22:15.199Z,101546.91
2017-05-30T10:24:41.490Z,101541.02
2017-05-30T10:27:07.669Z,101541.34
2017-05-30T10:29:35.008Z,101542.69
2017-05-30T10:32:01.187Z,101541.28
2017-05-30T10:34:27.391Z,101544.30
2017-05-30T10:36:53.658Z,101543.98
2017-05-30T10:39:19.874Z,101547.00
2017-05-30T10:41:46.086Z,101552.73
2017-05-30T10:44:12.344Z,101549.65
2017-05-30T10:46:38.550Z,101550.89
2017-05-30T10:49:04.713Z,101553.97
2017-05-30T10:51:30.918Z,101553.91
2017-05-30T10:53:57.133Z,101559.15
2017-05-30T10:56:23.506Z,101550.99
2017-05-30T10:58:49.674Z,101549.27
2017-05-30T11:01:15.887Z,101548.03
2017-05-30T11:03:42.113Z,101559.31
2017-05-30T11:06:08.279Z,101557.26
2017-05-30T11:08:35.522Z,101555.37
2017-05-30T11:11:01.697Z,101557.02
2017-05-30T11:13:27.921Z,101554.20
2017-05-30T11:15:54.255Z,101551.56
2017-05-30T11:18:20.494Z,101558.95
2017-05-30T11:20:46.756Z,101566.14
2017-05-30T11:23:13.275Z,101552.20
2017-05-30T11:25:39.454Z,101559.33
2017-05-30T11:28:05.649Z,101552.27
2017-05-30T11:40:11.854Z,101549.50
2017-05-30T11:42:39.474Z,101550.63
2017-05-30T11:45:05.847Z,101545.56
2017-05-30T11:47:33.076Z,101550.84
2017-05-30T11:49:59.242Z,101549.44
2017-05-30T11:52:25.487Z,101545.28
2017-05-30T11:54:51.670Z,101548.47
2017-05-30T11:57:17.884Z,101547.23
2017-05-30T11:59:44.212Z,101547.23
2017-05-30T12:02:10.402Z,101552.63
2017-05-30T12:04:36.668Z,101554.19
2017-05-30T12:07:02.826Z,101546.09
2017-05-30T12:09:29.033Z,101544.52
2017-05-30T12:11:55.511Z,101539.06
2017-05-30T12:14:21.688Z,101537.66
2017-05-30T12:16:47.909Z,101546.73
2017-05-30T12:19:14.091Z,101546.24
2017-05-30T12:21:40.299Z,101547.89
2017-05-30T12:24:06.693Z,101550.86
2017-05-30T12:26:32.837Z,101547.78
2017-05-30T12:28:59.082Z,101536.00
2017-05-30T12:31:25.270Z,101540.43
2017-05-30T12:33:51.462Z,101538.11
2017-05-30T12:36:17.951Z,101539.40
2017-05-30T12:38:44.234Z,101542.16
2017-05-30T12:41:10.426Z,101542.64
2017-05-30T12:43:36.637Z,101543.02
2017-05-30T12:46:02.791Z,101542.53
2017-05-30T12:48:29.370Z,101531.24
2017-05-30T12:50:55.557Z,101545.61
2017-05-30T12:53:21.741Z,101549.66
2017-05-30T12:55:47.957Z,101551.98
2017-05-30T12:58:14.173Z,101551.66
2017-05-30T13:00:40.333Z,101559.17
2017-05-30T13:03:06.514Z,101561.70
2017-05-30T13:05:32.822Z,101563.05
2017-05-30T13:07:59.003Z,101562.56
2017-05-30T13:10:25.167Z,101562.83
2017-05-30T13:12:51.342Z,101565.05
2017-05-30T13:15:17.513Z,101560.50
2017-05-30T13:17:43.693Z,101563.20
2017-05-30T13:20:09.851Z,101556.77
2017-05-30T13:22:36.045Z,101557.63
2017-05-30T13:25:02.233Z,101561.52
2017-05-30T13:27:28.389Z,101562.87
2017-05-30T13:29:54.611Z,101569.25
2017-05-30T13:32:20.781Z,101567.09
2017-05-30T13:34:47.008Z,101575.19
2017-05-30T13:37:13.230Z,101577.03
2017-05-30T13:39:39.618Z,101577.14
2017-05-30T13:42:05.787Z,101585.73
2017-05-30T13:44:31.946Z,101592.91
2017-05-30T13:46:58.689Z,101583.14
2017-05-30T13:49:24.855Z,101592.05
2017-05-30T13:51:51.114Z,101589.89
2017-05-30T13:54:17.397Z,101574.88
2017-05-30T13:56:43.553Z,101582.00
2017-05-30T13:59:09.825Z,101595.73
2017-05-30T14:01:36.070Z,101594.55
2017-05-30T14:04:02.257Z,101591.50
2017-05-30T14:06:28.470Z,101598.36
2017-05-30T14:08:54.636Z,101600.63
2017-05-30T14:11:20.902Z,101598.96
2017-05-30T14:13:47.117Z,101608.41
2017-05-30T14:16:13.329Z,101614.08
2017-05-30T14:18:39.531Z,101612.57
2017-05-30T14:21:05.696Z,101611.98
2017-05-30T14:23:31.937Z,101608.00
2017-05-30T14:25:58.110Z,101608.87
2017-05-30T14:28:24.318Z,101608.73
2017-05-30T14:30:50.490Z,101621.70
2017-05-30T14:33:16.706Z,101604.77
2017-05-30T14:35:43.002Z,101628.90
2017-05-30T14:38:09.217Z,101626.14
2017-05-30T14:40:35.442Z,101627.22
2017-05-30T14:43:01.636Z,101629.65
2017-05-30T14:45:27.821Z,101637.53
2017-05-30T14:47:54.121Z,101626.84
2017-05-30T14:50:20.866Z,101622.56
2017-05-30T14:52:47.086Z,101631.36
2017-05-30T14:55:13.309Z,101631.20
2017-05-30T14:57:39.487Z,101641.46
2017-05-30T15:00:05.893Z,101634.60
2017-05-30T15:02:32.130Z,101635.41
2017-05-30T15:04:58.339Z,101643.84
2017-05-30T15:07:24.602Z,101644.27
2017-05-30T15:09:50.910Z,101643.19
2017-05-30T15:12:17.221Z,101648.31
2017-05-30T15:14:43.411Z,101645.73
2017-05-30T15:17:09.585Z,101653.83
2017-05-30T15:19:35.803Z,101659.71
2017-05-30T15:22:01.969Z,101667.37
2017-05-30T15:24:28.299Z,101665.16
2017-05-30T15:26:54.489Z,101673.20
2017-05-30T15:29:20.645Z,101671.42
2017-05-30T15:31:47.493Z,101671.09
2017-05-30T15:34:13.653Z,101674.56
2017-05-30T15:36:39.931Z,101668.94
2017-05-30T15:39:06.147Z,101666.89
2017-05-30T15:41:32.429Z,101668.52
2017-05-30T15:43:58.694Z,101664.19
2017-05-30T15:46:24.943Z,101673.31
2017-05-30T15:48:51.235Z,101670.13
2017-05-30T15:51:17.476Z,101675.48
2017-05-30T15:53:43.732Z,101671.48
2017-05-30T15:56:10.018Z,101672.56
2017-05-30T15:58:36.254Z,101676.55
2017-05-30T16:01:02.514Z,101680.93
2017-05-30T16:03:28.696Z,101676.45
2017-05-30T16:05:54.968Z,101676.08
2017-05-30T16:08:21.263Z,101676.40
2017-05-30T16:10:47.559Z,101676.23
2017-05-30T16:13:13.775Z,101685.69
2017-05-30T16:15:39.987Z,101685.18
2017-05-30T16:18:06.229Z,101677.53
2017-05-30T16:20:32.431Z,101690.60
2017-05-30T16:22:58.599Z,101687.88
2017-05-30T16:25:25.238Z,101688.75
2017-05-30T16:27:51.514Z,101685.63
2017-05-30T16:30:17.722Z,101686.34
2017-05-30T16:32:44.122Z,101680.13
2017-05-30T16:46:56.323Z,101699.72
2017-05-30T17:07:01.574Z,101719.48
2017-05-30T17:09:27.731Z,101709.56
2017-05-30T17:11:53.980Z,101720.89
2017-05-30T17:14:20.154Z,101721.86
2017-05-30T17:16:46.449Z,101724.84
2017-05-30T17:19:12.590Z,101721.20
2017-05-30T17:21:44.609Z,101736.60
2017-05-30T17:24:10.898Z,101739.84
2017-05-30T17:26:37.092Z,101738.87
2017-05-30T17:29:03.292Z,101731.78
2017-05-30T17:31:29.458Z,101746.53
2017-05-30T17:33:55.630Z,101743.94
2017-05-30T17:45:35.618Z,101765.28
2017-05-30T17:48:01.867Z,101770.10
2017-05-30T18:05:12.606Z,101789.50
2017-05-30T18:07:38.778Z,101788.69
2017-05-30T18:10:04.962Z,101795.16
2017-05-30T18:12:31.129Z,101797.48
2017-05-30T18:14:57.421Z,101792.24
2017-05-30T18:17:23.714Z,101798.34
2017-05-30T18:25:43.675Z,101804.77
2017-05-30T18:28:09.929Z,101806.60
2017-05-30T18:30:36.164Z,101806.17
2017-05-30T18:33:02.330Z,101803.95
2017-05-30T18:44:46.553Z,101806.87
2017-05-30T18:47:12.891Z,101810.61
2017-05-30T18:49:39.108Z,101812.59
2017-05-30T19:03:51.306Z,101817.98
2017-05-30T19:23:56.471Z,101835.25
2017-05-30T19:26:22.743Z,101843.78
2017-05-30T19:28:48.996Z,101847.02
2017-05-30T19:31:15.235Z,101843.06
2017-05-30T19:33:41.653Z,101849.97
2017-05-30T19:44:57.707Z,101873.06
2017-05-30T19:47:24.762Z,101874.90
2017-05-30T19:49:51.768Z,101871.38
2017-05-30T20:04:03.941Z,101887.02
2017-05-30T20:24:09.398Z,101916.70
2017-05-30T20:26:35.653Z,101915.88
2017-05-30T20:29:01.895Z,101923.50
2017-05-30T20:31:28.078Z,101927.59
2017-05-30T20:33:54.381Z,101929.91
2017-05-30T20:45:10.009Z,101945.77
2017-05-30T20:47:36.270Z,101944.41
2017-05-30T20:50:02.435Z,101941.77
2017-05-30T21:04:14.774Z,101949.05
2017-05-30T21:06:46.810Z,101949.96
2017-05-30T21:09:13.194Z,101954.97
2017-05-30T21:11:39.914Z,101954.54
2017-05-30T21:14:06.080Z,101953.67
2017-05-30T21:16:32.299Z,101960.03
2017-05-30T21:18:58.474Z,101956.85
2017-05-30T21:24:21.407Z,101962.78
2017-05-30T21:26:49.163Z,101961.48
2017-05-30T21:29:15.370Z,101961.91
2017-05-30T21:31:41.721Z,101954.88
2017-05-30T21:34:07.923Z,101954.83
2017-05-30T21:45:23.478Z,101953.68
2017-05-30T21:47:49.816Z,101959.89
2017-05-30T21:50:15.995Z,101962.64
2017-05-30T21:52:48.037Z,101959.94
2017-05-30T21:55:14.194Z,101959.02
2017-05-30T21:57:40.377Z,101964.03
2017-05-30T22:00:06.597Z,101960.95
2017-05-30T22:02:32.803Z,101966.30
2017-05-30T22:04:59.024Z,101969.98
2017-05-30T22:25:04.435Z,101978.31
2017-05-30T22:27:30.594Z,101977.02
2017-05-30T22:29:56.773Z,101978.41
2017-05-30T22:32:22.955Z,101977.06
2017-05-30T22:34:49.108Z,101973.02
2017-05-30T22:46:04.853Z,101980.23
2017-05-30T22:48:31.037Z,101968.25
2017-05-30T22:50:57.189Z,101968.20
2017-05-30T23:05:09.537Z,101980.43
2017-05-30T23:25:15.334Z,101980.19
2017-05-30T23:27:41.611Z,101985.10
2017-05-30T23:30:07.794Z,101992.33
2017-05-30T23:32:33.969Z,101990.55
2017-05-30T23:35:00.159Z,101992.37
2017-05-30T23:46:15.870Z,101992.91
2017-05-30T23:48:42.181Z,101995.22
2017-05-30T23:51:08.461Z,101987.17
